< < Back
Terminal Aerodrome Forecast


Current Version              Previous Versions:   1  2  3  4  5  6  7  8  9  

Terminal Aerodrome Forecast

293
FTUS42 KCHS 241120
TAFSAV
TAF
KSAV 241120Z 2412/2512 VRB03KT P6SM FEW080
     FM241700 16008KT P6SM SCT060
     FM250100 VRB02KT P6SM SKC=

Latest METAR

439
SAUS80 KWBC 250700
MTRSAV
METAR KSAV 250653Z AUTO 00000KT 10SM FEW090 21/18 A3018 RMK AO2 SLP220
T02060183 TSNO


USA.gov is the U.S. government's official web portal to all federal, state and local government web resources and services.